Time;durP1;ratioP1;P1;durP2;ratioP2;P2;SDS_P1;SDS_P2;PMS_P1;PMS_P2;Temp;Humidity;BMP_temperature;BMP_pressure;BME280_temperature;BME280_humidity;BME280_pressure;Samples;Min_cycle;Max_cycle;Signal;HPM_P1;HPM_P2
2022/05/18 00:00:06;;;;;;;;;;;;;;;;;;1043599;28;2919;-51
2022/05/18 00:00:38;;;;;;;;;;;;;;;;;;1045584;28;3889;-53
2022/05/18 00:01:09;;;;;;;;;;;;;;;;;;1044726;28;1765;-52
2022/05/18 00:01:40;;;;;;;;;;;;;;;;;;1042802;28;3949;-51
2022/05/18 00:02:10;;;;;;;;;;;;;;;;;;1044457;28;2913;-58
2022/05/18 00:02:41;;;;;;;;;;;;;;;;;;1045637;28;4117;-55
2022/05/18 00:03:12;;;;;;;;;;;;;;;;;;1045739;28;3087;-53
2022/05/18 00:03:44;;;;;;;;;;;;;;;;;;1044534;28;4170;-50
2022/05/18 00:04:14;;;;;;;;;;;;;;;;;;1045753;28;3643;-52
2022/05/18 00:04:44;;;;;;;;;;;;;;;;;;1041796;28;4168;-49
2022/05/18 00:05:15;;;;;;;;;;;;;;;;;;1041559;28;1563;-49
2022/05/18 00:05:45;;;;;;;;;;;;;;;;;;1038728;28;4043;-54
2022/05/18 00:06:16;;;;;;;;;;;;;;;;;;1039458;28;4080;-52
2022/05/18 00:06:46;;;;;;;;;;;;;;;;;;1045234;28;4053;-51
2022/05/18 00:07:16;;;;;;;;;;;;;;;;;;1043553;28;3375;-52
2022/05/18 00:07:46;;;;;;;;;;;;;;;;;;1044239;28;4048;-51
2022/05/18 00:08:17;;;;;;;;;;;;;;;;;;1040277;28;2401;-53
2022/05/18 00:08:47;;;;;;;;;;;;;;;;;;1041243;28;3871;-51
2022/05/18 00:09:18;;;;;;;;;;;;;;;;;;1039726;28;3664;-50
2022/05/18 00:09:50;;;;;;;;;;;;;;;;;;1041066;28;3903;-52
2022/05/18 00:10:21;;;;;;;;;;;;;;;;;;1046423;28;3961;-54
2022/05/18 00:10:52;;;;;;;;;;;;;;;;;;1044943;28;3889;-52
2022/05/18 00:11:22;;;;;;;;;;;;;;;;;;1044731;28;3522;-56
2022/05/18 00:11:53;;;;;;;;;;;;;;;;;;1044210;28;3993;-50
2022/05/18 00:12:23;;;;;;;;;;;;;;;;;;1045577;28;3050;-58
2022/05/18 00:12:54;;;;;;;;;;;;;;;;;;1043497;28;3971;-52
2022/05/18 00:13:24;;;;;;;;;;;;;;;;;;1043161;28;3840;-54
2022/05/18 00:13:54;;;;;;;;;;;;;;;;;;1044004;28;4157;-50
2022/05/18 00:14:25;;;;;;;;;;;;;;;;;;1045795;28;2289;-55
2022/05/18 00:14:55;;;;;;;;;;;;;;;;;;1045810;28;4128;-50
2022/05/18 00:15:27;;;;;;;;;;;;;;;;;;1046636;28;3943;-52
2022/05/18 00:15:57;;;;;;;;;;;;;;;;;;1045222;28;3797;-55
2022/05/18 00:16:27;;;;;;;;;;;;;;;;;;1045520;28;1620;-54
2022/05/18 00:17:00;;;;;;;;;;;;;;;;;;1044736;28;4277;-54
2022/05/18 00:17:30;;;;;;;;;;;;;;;;;;1046099;28;1696;-53
2022/05/18 00:18:00;;;;;;;;;;;;;;;;;;1045413;28;3848;-56
2022/05/18 00:18:31;;;;;;;;;;;;;;;;;;1044914;28;3310;-55
2022/05/18 00:19:01;;;;;;;;;;;;;;;;;;1045391;28;3991;-51
2022/05/18 00:19:38;;;;;;;;;;;;;;;;;;1045568;28;4073;-55
2022/05/18 00:20:09;;;;;;;;;;;;;;;;;;1044764;28;3622;-51
2022/05/18 00:20:40;;;;;;;;;;;;;;;;;;1045855;28;4215;-50
2022/05/18 00:21:10;;;;;;;;;;;;;;;;;;1045216;28;2918;-53
2022/05/18 00:21:41;;;;;;;;;;;;;;;;;;1044411;28;3849;-54
2022/05/18 00:22:12;;;;;;;;;;;;;;;;;;1045840;28;1572;-52
2022/05/18 00:22:50;;;;;;;;;;;;;;;;;;1045426;28;4006;-54
2022/05/18 00:23:20;;;;;;;;;;;;;;;;;;1044786;28;3340;-48
2022/05/18 00:23:51;;;;;;;;;;;;;;;;;;1045279;28;4135;-54
2022/05/18 00:24:21;;;;;;;;;;;;;;;;;;1041161;28;3817;-57
2022/05/18 00:24:51;;;;;;;;;;;;;;;;;;1041589;28;4075;-51
2022/05/18 00:25:23;;;;;;;;;;;;;;;;;;1042100;28;1656;-50
2022/05/18 00:25:54;;;;;;;;;;;;;;;;;;1040504;28;3830;-55
2022/05/18 00:26:24;;;;;;;;;;;;;;;;;;1044407;28;3556;-55
2022/05/18 00:26:55;;;;;;;;;;;;;;;;;;1043982;28;4070;-53
2022/05/18 00:27:25;;;;;;;;;;;;;;;;;;1040347;28;3653;-54
2022/05/18 00:27:55;;;;;;;;;;;;;;;;;;1040955;28;3867;-55
2022/05/18 00:28:26;;;;;;;;;;;;;;;;;;1040084;28;3338;-51
2022/05/18 00:28:56;;;;;;;;;;;;;;;;;;1040807;28;3896;-56
2022/05/18 00:29:26;;;;;;;;;;;;;;;;;;1043972;28;2830;-55
2022/05/18 00:29:56;;;;;;;;;;;;;;;;;;1044291;28;3991;-50
2022/05/18 00:30:40;;;;;;;;;;;;;;;;;;1044890;28;3272;-53
2022/05/18 00:31:24;;;;;;;;;;;;;;;;;;1041533;28;3689;-50
2022/05/18 00:31:55;;;;;;;;;;;;;;;;;;1040997;28;4161;-46
2022/05/18 00:32:25;;;;;;;;;;;;;;;;;;1041203;28;2205;-58
2022/05/18 00:32:55;;;;;;;;;;;;;;;;;;1041891;28;3920;-52
2022/05/18 00:33:26;;;;;;;;;;;;;;;;;;1040235;28;3074;-52
2022/05/18 00:33:56;;;;;;;;;;;;;;;;;;1039741;28;6214;-54
2022/05/18 00:34:26;;;;;;;;;;;;;;;;;;1041960;28;1886;-55
2022/05/18 00:34:57;;;;;;;;;;;;;;;;;;1036987;28;4094;-53
2022/05/18 00:35:27;;;;;;;;;;;;;;;;;;1041014;28;2208;-57
2022/05/18 00:35:57;;;;;;;;;;;;;;;;;;1041453;28;4045;-53
2022/05/18 00:36:27;;;;;;;;;;;;;;;;;;1041494;28;1699;-54
2022/05/18 00:36:58;;;;;;;;;;;;;;;;;;1040421;28;3885;-48
2022/05/18 00:37:28;;;;;;;;;;;;;;;;;;1042422;28;1578;-54
2022/05/18 00:37:58;;;;;;;;;;;;;;;;;;1039484;28;3993;-51
2022/05/18 00:38:29;;;;;;;;;;;;;;;;;;1035749;28;3801;-51
2022/05/18 00:38:59;;;;;;;;;;;;;;;;;;1035803;28;4055;-52
2022/05/18 00:39:29;;;;;;;;;;;;;;;;;;1036198;28;2495;-50
2022/05/18 00:40:00;;;;;;;;;;;;;;;;;;1040978;28;4374;-54
2022/05/18 00:40:31;;;;;;;;;;;;;;;;;;1040680;28;3479;-49
2022/05/18 00:41:01;;;;;;;;;;;;;;;;;;1039158;28;4064;-48
2022/05/18 00:41:32;;;;;;;;;;;;;;;;;;1041165;28;1732;-50
2022/05/18 00:42:02;;;;;;;;;;;;;;;;;;1039608;28;3818;-52
2022/05/18 00:42:33;;;;;;;;;;;;;;;;;;1041413;28;3660;-52
2022/05/18 00:43:03;;;;;;;;;;;;;;;;;;1040102;28;4034;-48
2022/05/18 00:43:34;;;;;;;;;;;;;;;;;;1041339;28;3886;-47
2022/05/18 00:44:05;;;;;;;;;;;;;;;;;;1041570;28;1581;-52
2022/05/18 00:44:35;;;;;;;;;;;;;;;;;;1040951;28;4142;-51
2022/05/18 00:45:06;;;;;;;;;;;;;;;;;;1040895;28;1726;-52
2022/05/18 00:45:36;;;;;;;;;;;;;;;;;;1039879;28;4094;-53
2022/05/18 00:46:07;;;;;;;;;;;;;;;;;;1041358;28;2975;-50
2022/05/18 00:46:38;;;;;;;;;;;;;;;;;;1041913;28;3873;-49
2022/05/18 00:47:08;;;;;;;;;;;;;;;;;;1041472;28;1621;-53
2022/05/18 00:47:38;;;;;;;;;;;;;;;;;;1041233;28;4220;-51
2022/05/18 00:48:08;;;;;;;;;;;;;;;;;;1040899;28;3863;-53
2022/05/18 00:48:39;;;;;;;;;;;;;;;;;;1040716;28;3988;-53
2022/05/18 00:49:10;;;;;;;;;;;;;;;;;;1041190;28;2067;-50
2022/05/18 00:49:42;;;;;;;;;;;;;;;;;;1039488;28;3897;-57
2022/05/18 00:50:23;;;;;;;;;;;;;;;;;;1041620;28;1640;-52
2022/05/18 00:50:55;;;;;;;;;;;;;;;;;;1041422;28;4080;-54
2022/05/18 00:51:25;;;;;;;;;;;;;;;;;;1042203;28;1729;-52
2022/05/18 00:51:55;;;;;;;;;;;;;;;;;;1038638;28;4011;-49
2022/05/18 00:52:31;;;;;;;;;;;;;;;;;;1040795;28;3164;-48
2022/05/18 00:53:04;;;;;;;;;;;;;;;;;;1041327;28;3889;-51
2022/05/18 00:53:38;;;;;;;;;;;;;;;;;;1040858;28;3965;-49
2022/05/18 00:54:19;;;;;;;;;;;;;;;;;;1041331;28;1643;-55
2022/05/18 00:54:50;;;;;;;;;;;;;;;;;;1040508;28;3923;-52
2022/05/18 00:55:23;;;;;;;;;;;;;;;;;;1041179;28;2202;-51
2022/05/18 00:56:00;;;;;;;;;;;;;;;;;;1041168;28;4054;-50
2022/05/18 00:56:34;;;;;;;;;;;;;;;;;;1039743;28;2067;-52
2022/05/18 00:57:07;;;;;;;;;;;;;;;;;;1041727;28;3818;-49
2022/05/18 00:57:40;;;;;;;;;;;;;;;;;;1041290;28;4068;-53
2022/05/18 00:58:17;;;;;;;;;;;;;;;;;;1040610;28;3714;-52
2022/05/18 00:59:05;;;;;;;;;;;;;;;;;;1041310;28;4436;-51
2022/05/18 00:59:42;;;;;;;;;;;;;;;;;;1040650;28;3956;-50
2022/05/18 01:00:14;;;;;;;;;;;;;;;;;;1041808;28;2438;-46
2022/05/18 01:00:45;;;;;;;;;;;;;;;;;;1042278;28;4069;-48
2022/05/18 01:01:16;;;;;;;;;;;;;;;;;;1041124;28;2831;-52
2022/05/18 01:01:48;;;;;;;;;;;;;;;;;;1040172;28;4170;-53
2022/05/18 01:02:18;;;;;;;;;;;;;;;;;;1039601;28;3833;-57
2022/05/18 01:02:52;;;;;;;;;;;;;;;;;;1041224;28;4076;-49
2022/05/18 01:03:23;;;;;;;;;;;;;;;;;;1041667;28;1743;-51
2022/05/18 01:03:54;;;;;;;;;;;;;;;;;;1041799;28;4049;-56
2022/05/18 01:04:26;;;;;;;;;;;;;;;;;;1041868;28;1996;-54
2022/05/18 01:04:58;;;;;;;;;;;;;;;;;;1040507;28;4068;-53
2022/05/18 01:05:31;;;;;;;;;;;;;;;;;;1041905;28;1626;-57
2022/05/18 01:06:11;;;;;;;;;;;;;;;;;;1041376;28;4007;-53
2022/05/18 01:06:44;;;;;;;;;;;;;;;;;;1041630;28;3916;-49
2022/05/18 01:07:20;;;;;;;;;;;;;;;;;;1042324;28;1604;-50
2022/05/18 01:07:53;;;;;;;;;;;;;;;;;;1040368;28;3889;-51
2022/05/18 01:08:32;;;;;;;;;;;;;;;;;;1041153;28;2582;-52
2022/05/18 01:09:04;;;;;;;;;;;;;;;;;;1040826;28;3922;-52
2022/05/18 01:09:39;;;;;;;;;;;;;;;;;;1040251;28;3899;-50
2022/05/18 01:10:10;;;;;;;;;;;;;;;;;;1041723;28;2137;-51
2022/05/18 01:10:40;;;;;;;;;;;;;;;;;;1041405;28;4189;-52
2022/05/18 01:11:10;;;;;;;;;;;;;;;;;;1041229;28;2118;-50
2022/05/18 01:11:40;;;;;;;;;;;;;;;;;;1041273;28;3964;-51
2022/05/18 01:12:13;;;;;;;;;;;;;;;;;;1041020;28;1636;-54
2022/05/18 01:12:45;;;;;;;;;;;;;;;;;;1041737;28;3967;-52
2022/05/18 01:13:15;;;;;;;;;;;;;;;;;;1040829;28;2421;-52
2022/05/18 01:13:45;;;;;;;;;;;;;;;;;;1038983;28;4978;-51
2022/05/18 01:14:20;;;;;;;;;;;;;;;;;;1041171;28;1812;-56
2022/05/18 01:14:56;;;;;;;;;;;;;;;;;;1041515;28;3882;-51
2022/05/18 01:15:26;;;;;;;;;;;;;;;;;;1042422;28;1602;-50
2022/05/18 01:15:56;;;;;;;;;;;;;;;;;;1039542;28;4073;-51
2022/05/18 01:16:28;;;;;;;;;;;;;;;;;;1039756;28;3809;-55
2022/05/18 01:16:58;;;;;;;;;;;;;;;;;;1041283;28;4076;-53
2022/05/18 01:17:32;;;;;;;;;;;;;;;;;;1040299;28;4042;-51
2022/05/18 01:18:03;;;;;;;;;;;;;;;;;;1039160;28;4100;-49
2022/05/18 01:18:34;;;;;;;;;;;;;;;;;;1037511;28;3051;-54
2022/05/18 01:19:07;;;;;;;;;;;;;;;;;;1040021;28;4016;-53
2022/05/18 01:19:46;;;;;;;;;;;;;;;;;;1039980;28;4088;-53
2022/05/18 01:20:21;;;;;;;;;;;;;;;;;;1041091;28;3602;-52
2022/05/18 01:20:52;;;;;;;;;;;;;;;;;;1040890;28;3913;-48
2022/05/18 01:21:25;;;;;;;;;;;;;;;;;;1041290;28;1403;-50
2022/05/18 01:22:03;;;;;;;;;;;;;;;;;;1041610;28;3880;-52
2022/05/18 01:22:40;;;;;;;;;;;;;;;;;;1040722;28;3794;-55
2022/05/18 01:23:10;;;;;;;;;;;;;;;;;;1045960;28;4086;-48
2022/05/18 01:23:56;;;;;;;;;;;;;;;;;;1043815;28;3901;-50
2022/05/18 01:24:47;;;;;;;;;;;;;;;;;;1042487;28;1926;-52
2022/05/18 01:25:36;;;;;;;;;;;;;;;;;;1026404;28;3721;-55
2022/05/18 01:26:15;;;;;;;;;;;;;;;;;;1041312;28;4000;-52
2022/05/18 01:26:47;;;;;;;;;;;;;;;;;;1041554;28;4075;-52
2022/05/18 01:27:17;;;;;;;;;;;;;;;;;;1041249;28;1783;-51
2022/05/18 01:27:48;;;;;;;;;;;;;;;;;;1038181;28;4053;-51
2022/05/18 01:28:28;;;;;;;;;;;;;;;;;;1040527;28;2344;-52
2022/05/18 01:28:59;;;;;;;;;;;;;;;;;;1038335;28;4143;-51
2022/05/18 01:29:30;;;;;;;;;;;;;;;;;;1038624;28;3469;-54
2022/05/18 01:30:00;;;;;;;;;;;;;;;;;;1036915;28;3955;-51
2022/05/18 01:30:31;;;;;;;;;;;;;;;;;;1031892;28;3257;-51
2022/05/18 01:31:07;;;;;;;;;;;;;;;;;;1029435;28;4089;-51
2022/05/18 01:31:44;;;;;;;;;;;;;;;;;;1030171;28;3959;-54
2022/05/18 01:32:21;;;;;;;;;;;;;;;;;;1034724;28;1714;-50
2022/05/18 01:32:53;;;;;;;;;;;;;;;;;;1035277;28;4080;-56
2022/05/18 01:33:24;;;;;;;;;;;;;;;;;;1035640;28;1888;-46
2022/05/18 01:33:54;;;;;;;;;;;;;;;;;;1035991;28;4122;-53
2022/05/18 01:34:26;;;;;;;;;;;;;;;;;;1039372;28;3730;-49
2022/05/18 01:34:56;;;;;;;;;;;;;;;;;;1037468;28;4034;-54
2022/05/18 01:35:29;;;;;;;;;;;;;;;;;;1036940;28;2258;-51
2022/05/18 01:35:59;;;;;;;;;;;;;;;;;;1036757;28;4052;-52
2022/05/18 01:36:29;;;;;;;;;;;;;;;;;;1037290;28;2521;-53
2022/05/18 01:36:59;;;;;;;;;;;;;;;;;;1036135;28;4200;-54
2022/05/18 01:37:30;;;;;;;;;;;;;;;;;;1037723;28;2216;-51
2022/05/18 01:38:00;;;;;;;;;;;;;;;;;;1037264;28;3872;-50
2022/05/18 01:38:31;;;;;;;;;;;;;;;;;;1037291;28;1810;-53
2022/05/18 01:39:02;;;;;;;;;;;;;;;;;;1034181;28;4006;-50
2022/05/18 01:39:35;;;;;;;;;;;;;;;;;;1036963;28;3303;-51
2022/05/18 01:40:08;;;;;;;;;;;;;;;;;;1037036;28;4941;-52
2022/05/18 01:40:58;;;;;;;;;;;;;;;;;;1037908;28;3888;-53
2022/05/18 01:41:30;;;;;;;;;;;;;;;;;;1039953;28;3323;-53
2022/05/18 01:42:03;;;;;;;;;;;;;;;;;;1036741;28;4062;-49
2022/05/18 01:42:37;;;;;;;;;;;;;;;;;;1037629;28;1814;-54
2022/05/18 01:43:15;;;;;;;;;;;;;;;;;;1036501;28;3829;-51
2022/05/18 01:43:48;;;;;;;;;;;;;;;;;;1034468;28;4022;-54
2022/05/18 01:44:19;;;;;;;;;;;;;;;;;;1036738;28;3261;-52
2022/05/18 01:44:49;;;;;;;;;;;;;;;;;;1035665;28;4016;-57
2022/05/18 01:45:19;;;;;;;;;;;;;;;;;;1037160;28;3554;-51
2022/05/18 01:45:57;;;;;;;;;;;;;;;;;;1036544;28;3777;-50
2022/05/18 01:46:48;;;;;;;;;;;;;;;;;;1037021;28;4380;-57
2022/05/18 01:47:18;;;;;;;;;;;;;;;;;;1037419;28;3530;-52
2022/05/18 01:47:50;;;;;;;;;;;;;;;;;;1036954;28;4137;-53
2022/05/18 01:48:23;;;;;;;;;;;;;;;;;;1036637;28;4323;-55
2022/05/18 01:48:53;;;;;;;;;;;;;;;;;;1037203;28;3961;-51
2022/05/18 01:49:24;;;;;;;;;;;;;;;;;;1037186;28;3532;-56
2022/05/18 01:49:54;;;;;;;;;;;;;;;;;;1036372;28;4086;-50
2022/05/18 01:50:27;;;;;;;;;;;;;;;;;;1036536;28;3734;-50
2022/05/18 01:50:59;;;;;;;;;;;;;;;;;;1034229;28;4109;-56
2022/05/18 01:51:39;;;;;;;;;;;;;;;;;;1038183;28;1612;-47
2022/05/18 01:52:10;;;;;;;;;;;;;;;;;;1037225;28;3756;-53
2022/05/18 01:52:40;;;;;;;;;;;;;;;;;;1036142;28;4277;-47
2022/05/18 01:53:11;;;;;;;;;;;;;;;;;;1037387;28;2971;-50
2022/05/18 01:53:41;;;;;;;;;;;;;;;;;;1037372;28;4053;-49
2022/05/18 01:54:12;;;;;;;;;;;;;;;;;;1036500;28;3890;-50
2022/05/18 01:54:44;;;;;;;;;;;;;;;;;;1035930;28;3890;-51
2022/05/18 01:55:16;;;;;;;;;;;;;;;;;;1036119;28;3320;-53
2022/05/18 01:55:47;;;;;;;;;;;;;;;;;;1035443;28;4267;-54
2022/05/18 01:56:17;;;;;;;;;;;;;;;;;;1037704;28;2866;-53
2022/05/18 01:56:47;;;;;;;;;;;;;;;;;;1035411;28;4256;-55
2022/05/18 01:57:17;;;;;;;;;;;;;;;;;;1037261;28;3619;-57
2022/05/18 01:57:48;;;;;;;;;;;;;;;;;;1036532;28;4076;-54
2022/05/18 01:58:18;;;;;;;;;;;;;;;;;;1036686;28;3655;-47
2022/05/18 01:58:48;;;;;;;;;;;;;;;;;;1039864;28;4061;-50
2022/05/18 01:59:19;;;;;;;;;;;;;;;;;;1035835;28;3127;-51
2022/05/18 01:59:49;;;;;;;;;;;;;;;;;;1033440;28;4059;-53
2022/05/18 02:00:19;;;;;;;;;;;;;;;;;;1033775;28;5087;-53
2022/05/18 02:00:50;;;;;;;;;;;;;;;;;;1032481;28;3874;-48
2022/05/18 02:01:21;;;;;;;;;;;;;;;;;;1034254;28;3505;-50
2022/05/18 02:01:51;;;;;;;;;;;;;;;;;;1036124;28;4159;-51
2022/05/18 02:02:22;;;;;;;;;;;;;;;;;;1036042;28;3581;-48
2022/05/18 02:02:53;;;;;;;;;;;;;;;;;;1036958;28;4066;-57
2022/05/18 02:03:23;;;;;;;;;;;;;;;;;;1037037;28;2349;-53
2022/05/18 02:03:53;;;;;;;;;;;;;;;;;;1036217;28;3910;-56
2022/05/18 02:04:24;;;;;;;;;;;;;;;;;;1037855;28;3846;-50
2022/05/18 02:04:55;;;;;;;;;;;;;;;;;;1036702;28;4111;-55
2022/05/18 02:05:26;;;;;;;;;;;;;;;;;;1040946;28;3262;-52
2022/05/18 02:05:56;;;;;;;;;;;;;;;;;;1037855;28;4081;-55
2022/05/18 02:06:26;;;;;;;;;;;;;;;;;;1041406;28;3282;-54
2022/05/18 02:06:56;;;;;;;;;;;;;;;;;;1039439;28;4072;-50
2022/05/18 02:07:27;;;;;;;;;;;;;;;;;;1035308;28;3277;-53
2022/05/18 02:07:57;;;;;;;;;;;;;;;;;;1030811;28;4096;-51
2022/05/18 02:08:28;;;;;;;;;;;;;;;;;;1036241;28;1872;-56
2022/05/18 02:08:58;;;;;;;;;;;;;;;;;;1035302;28;3749;-47
2022/05/18 02:09:29;;;;;;;;;;;;;;;;;;1035846;28;2791;-56
2022/05/18 02:09:59;;;;;;;;;;;;;;;;;;1035736;28;4109;-52
2022/05/18 02:10:29;;;;;;;;;;;;;;;;;;1036197;28;3931;-52
2022/05/18 02:11:00;;;;;;;;;;;;;;;;;;1036510;28;3910;-49
2022/05/18 02:11:31;;;;;;;;;;;;;;;;;;1036617;28;4324;-52
2022/05/18 02:12:02;;;;;;;;;;;;;;;;;;1036095;28;3924;-51
2022/05/18 02:12:33;;;;;;;;;;;;;;;;;;1041575;28;1288;-53
2022/05/18 02:13:04;;;;;;;;;;;;;;;;;;1040998;28;3800;-51
2022/05/18 02:13:34;;;;;;;;;;;;;;;;;;1040814;28;3884;-52
2022/05/18 02:14:04;;;;;;;;;;;;;;;;;;1036691;28;2293;-53
2022/05/18 02:14:35;;;;;;;;;;;;;;;;;;1033941;28;4075;-54
2022/05/18 02:15:06;;;;;;;;;;;;;;;;;;1036394;28;3467;-53
2022/05/18 02:15:36;;;;;;;;;;;;;;;;;;1034763;28;4197;-53
2022/05/18 02:16:06;;;;;;;;;;;;;;;;;;1037666;28;4091;-56
2022/05/18 02:16:37;;;;;;;;;;;;;;;;;;1034982;28;4575;-55
2022/05/18 02:17:07;;;;;;;;;;;;;;;;;;1037838;28;1938;-50
2022/05/18 02:17:38;;;;;;;;;;;;;;;;;;1035950;28;4059;-51
2022/05/18 02:18:09;;;;;;;;;;;;;;;;;;1037901;28;1320;-52
2022/05/18 02:18:39;;;;;;;;;;;;;;;;;;1036481;28;4135;-51
2022/05/18 02:19:09;;;;;;;;;;;;;;;;;;1037359;28;2057;-52
2022/05/18 02:19:40;;;;;;;;;;;;;;;;;;1037862;28;4038;-56
2022/05/18 02:20:11;;;;;;;;;;;;;;;;;;1037186;28;2126;-55
2022/05/18 02:20:41;;;;;;;;;;;;;;;;;;1041442;28;4149;-51
2022/05/18 02:21:11;;;;;;;;;;;;;;;;;;1040479;28;2024;-56
2022/05/18 02:21:42;;;;;;;;;;;;;;;;;;1039564;28;5317;-53
2022/05/18 02:22:12;;;;;;;;;;;;;;;;;;1040720;28;3703;-50
2022/05/18 02:22:57;;;;;;;;;;;;;;;;;;1032989;28;4114;-58
2022/05/18 02:23:35;;;;;;;;;;;;;;;;;;1034060;28;4336;-52
2022/05/18 02:24:11;;;;;;;;;;;;;;;;;;1037723;28;3823;-51
2022/05/18 02:24:42;;;;;;;;;;;;;;;;;;1035553;28;3938;-57
2022/05/18 02:25:12;;;;;;;;;;;;;;;;;;1035114;28;3949;-50
2022/05/18 02:25:43;;;;;;;;;;;;;;;;;;1035022;28;3983;-55
2022/05/18 02:26:14;;;;;;;;;;;;;;;;;;1035081;28;3094;-51
2022/05/18 02:26:45;;;;;;;;;;;;;;;;;;1037422;28;3978;-54
2022/05/18 02:27:15;;;;;;;;;;;;;;;;;;1036007;28;2614;-59
2022/05/18 02:27:46;;;;;;;;;;;;;;;;;;1036729;28;3817;-52
2022/05/18 02:28:16;;;;;;;;;;;;;;;;;;1035669;28;4047;-52
2022/05/18 02:28:53;;;;;;;;;;;;;;;;;;1035728;28;4432;-52
2022/05/18 02:29:23;;;;;;;;;;;;;;;;;;1035930;28;3391;-54
2022/05/18 02:29:53;;;;;;;;;;;;;;;;;;1035156;28;4085;-55
2022/05/18 02:30:23;;;;;;;;;;;;;;;;;;1037827;28;3561;-52
2022/05/18 02:31:00;;;;;;;;;;;;;;;;;;1037244;28;4042;-53
2022/05/18 02:31:37;;;;;;;;;;;;;;;;;;1042644;28;2943;-53
2022/05/18 02:32:15;;;;;;;;;;;;;;;;;;1044729;28;4043;-50
2022/05/18 02:32:45;;;;;;;;;;;;;;;;;;1042111;28;3983;-53
2022/05/18 02:33:15;;;;;;;;;;;;;;;;;;1042960;28;2100;-52
2022/05/18 02:33:45;;;;;;;;;;;;;;;;;;1045785;28;4440;-54
2022/05/18 02:34:15;;;;;;;;;;;;;;;;;;1044644;28;2758;-50
2022/05/18 02:34:46;;;;;;;;;;;;;;;;;;1044906;28;3893;-52
2022/05/18 02:35:16;;;;;;;;;;;;;;;;;;1043200;28;3435;-53
2022/05/18 02:35:47;;;;;;;;;;;;;;;;;;1042524;28;4105;-50
2022/05/18 02:36:17;;;;;;;;;;;;;;;;;;1042931;28;3702;-52
2022/05/18 02:36:48;;;;;;;;;;;;;;;;;;1042004;28;4288;-53
2022/05/18 02:37:18;;;;;;;;;;;;;;;;;;1042062;28;3386;-55
2022/05/18 02:37:49;;;;;;;;;;;;;;;;;;1045013;28;4069;-55
2022/05/18 02:38:19;;;;;;;;;;;;;;;;;;1042450;28;4137;-52
2022/05/18 02:38:50;;;;;;;;;;;;;;;;;;1041532;28;4091;-55
2022/05/18 02:39:21;;;;;;;;;;;;;;;;;;1045200;28;3237;-58
2022/05/18 02:39:51;;;;;;;;;;;;;;;;;;1040462;28;4410;-49
2022/05/18 02:40:22;;;;;;;;;;;;;;;;;;1039839;28;3459;-50
2022/05/18 02:40:55;;;;;;;;;;;;;;;;;;1039960;28;3879;-53
2022/05/18 02:41:25;;;;;;;;;;;;;;;;;;1040426;28;2727;-50
2022/05/18 02:41:56;;;;;;;;;;;;;;;;;;1040952;28;3924;-53
2022/05/18 02:42:26;;;;;;;;;;;;;;;;;;1043965;28;3853;-55
2022/05/18 02:42:56;;;;;;;;;;;;;;;;;;1043834;28;4501;-55
2022/05/18 02:43:27;;;;;;;;;;;;;;;;;;1037671;28;3911;-49
2022/05/18 02:43:58;;;;;;;;;;;;;;;;;;1037553;28;4274;-53
2022/05/18 02:44:28;;;;;;;;;;;;;;;;;;1038764;28;3777;-53
2022/05/18 02:44:59;;;;;;;;;;;;;;;;;;1038260;28;4518;-53
2022/05/18 02:45:29;;;;;;;;;;;;;;;;;;1042425;28;3180;-52
2022/05/18 02:46:00;;;;;;;;;;;;;;;;;;1042180;28;4271;-54
2022/05/18 02:46:31;;;;;;;;;;;;;;;;;;1044522;28;3422;-53
2022/05/18 02:47:01;;;;;;;;;;;;;;;;;;1043394;28;3945;-55
2022/05/18 02:47:31;;;;;;;;;;;;;;;;;;1038467;28;3141;-54
2022/05/18 02:48:01;;;;;;;;;;;;;;;;;;1038434;28;4111;-54
2022/05/18 02:48:32;;;;;;;;;;;;;;;;;;1038029;28;4365;-54
2022/05/18 02:49:02;;;;;;;;;;;;;;;;;;1036808;28;4085;-56
2022/05/18 02:49:32;;;;;;;;;;;;;;;;;;1041677;28;4347;-55
2022/05/18 02:50:03;;;;;;;;;;;;;;;;;;1041911;28;3918;-54
2022/05/18 02:50:34;;;;;;;;;;;;;;;;;;1044942;28;3199;-54
2022/05/18 02:51:05;;;;;;;;;;;;;;;;;;1041757;28;4410;-55
2022/05/18 02:51:35;;;;;;;;;;;;;;;;;;1037865;28;4065;-49
2022/05/18 02:52:05;;;;;;;;;;;;;;;;;;1040706;28;3189;-57
2022/05/18 02:52:37;;;;;;;;;;;;;;;;;;1035056;28;4011;-55
2022/05/18 02:53:07;;;;;;;;;;;;;;;;;;1035001;28;3271;-50
2022/05/18 02:53:38;;;;;;;;;;;;;;;;;;1035838;28;4075;-56
2022/05/18 02:56:35;;;;;;;;;;;;;;;;;;1044062;28;3924;-56
2022/05/18 02:57:06;;;;;;;;;;;;;;;;;;1044597;28;2740;-50
2022/05/18 02:57:37;;;;;;;;;;;;;;;;;;1042984;28;4112;-53
2022/05/18 02:58:07;;;;;;;;;;;;;;;;;;1044115;28;3748;-55
2022/05/18 02:58:39;;;;;;;;;;;;;;;;;;1044598;28;4137;-51
2022/05/18 02:59:13;;;;;;;;;;;;;;;;;;1043263;28;3789;-59
2022/05/18 02:59:44;;;;;;;;;;;;;;;;;;1043400;28;4092;-50
2022/05/18 03:00:15;;;;;;;;;;;;;;;;;;1043917;28;4456;-51
2022/05/18 03:00:45;;;;;;;;;;;;;;;;;;1037933;28;4132;-50
2022/05/18 03:01:17;;;;;;;;;;;;;;;;;;1039144;28;3822;-49
2022/05/18 03:01:48;;;;;;;;;;;;;;;;;;1038499;28;4078;-58
2022/05/18 03:02:18;;;;;;;;;;;;;;;;;;1039787;28;3346;-51
2022/05/18 03:02:48;;;;;;;;;;;;;;;;;;1041453;28;4616;-54
2022/05/18 03:03:18;;;;;;;;;;;;;;;;;;1040031;28;3520;-52
2022/05/18 03:03:49;;;;;;;;;;;;;;;;;;1039607;28;3873;-53
2022/05/18 03:04:19;;;;;;;;;;;;;;;;;;1039868;28;3433;-49
2022/05/18 03:04:49;;;;;;;;;;;;;;;;;;1039806;28;4035;-51
2022/05/18 03:05:20;;;;;;;;;;;;;;;;;;1041972;28;3376;-51
2022/05/18 03:05:50;;;;;;;;;;;;;;;;;;1045207;28;4255;-52
2022/05/18 03:06:22;;;;;;;;;;;;;;;;;;1042820;28;3593;-57
2022/05/18 03:06:52;;;;;;;;;;;;;;;;;;1043291;28;3871;-54
2022/05/18 03:07:22;;;;;;;;;;;;;;;;;;1040375;28;4620;-53
2022/05/18 03:07:53;;;;;;;;;;;;;;;;;;1038099;28;3878;-56
2022/05/18 03:08:24;;;;;;;;;;;;;;;;;;1042016;28;2969;-54
2022/05/18 03:08:56;;;;;;;;;;;;;;;;;;1029168;28;4123;-53
2022/05/18 03:09:27;;;;;;;;;;;;;;;;;;1037548;28;1961;-56
2022/05/18 03:10:16;;;;;;;;;;;;;;;;;;1036178;28;3818;-52
2022/05/18 03:10:47;;;;;;;;;;;;;;;;;;1037417;28;4142;-53
2022/05/18 03:11:20;;;;;;;;;;;;;;;;;;1042350;28;4417;-52
2022/05/18 03:12:04;;;;;;;;;;;;;;;;;;1035418;28;3879;-48
2022/05/18 03:12:35;;;;;;;;;;;;;;;;;;1036744;28;4087;-51
2022/05/18 03:13:05;;;;;;;;;;;;;;;;;;1037824;28;1966;-49
2022/05/18 03:13:35;;;;;;;;;;;;;;;;;;1038237;28;4163;-53
2022/05/18 03:14:06;;;;;;;;;;;;;;;;;;1039411;28;3340;-50
2022/05/18 03:14:36;;;;;;;;;;;;;;;;;;1044079;28;3976;-54
2022/05/18 03:15:06;;;;;;;;;;;;;;;;;;1043466;28;3607;-53
2022/05/18 03:15:37;;;;;;;;;;;;;;;;;;1044538;28;4134;-52
2022/05/18 03:16:07;;;;;;;;;;;;;;;;;;1041267;28;3387;-53
2022/05/18 03:16:38;;;;;;;;;;;;;;;;;;1043752;28;3988;-55
2022/05/18 03:17:08;;;;;;;;;;;;;;;;;;1040584;28;3879;-51
2022/05/18 03:17:39;;;;;;;;;;;;;;;;;;1042493;28;5162;-52
2022/05/18 03:18:09;;;;;;;;;;;;;;;;;;1045245;28;3349;-54
2022/05/18 03:18:39;;;;;;;;;;;;;;;;;;1043211;28;3864;-55
2022/05/18 03:19:10;;;;;;;;;;;;;;;;;;1044428;28;2916;-51
2022/05/18 03:19:41;;;;;;;;;;;;;;;;;;1043588;28;3929;-51
2022/05/18 03:23:33;;;;;;;;;;;;;;;;;;1045279;28;2714;-55
2022/05/18 03:23:35;;;;;;;;;;;;;;;;;;1044432;28;4017;-52
2022/05/18 03:24:05;;;;;;;;;;;;;;;;;;1044269;28;3946;-50
2022/05/18 03:24:36;;;;;;;;;;;;;;;;;;1045971;28;4139;-49
2022/05/18 03:25:06;;;;;;;;;;;;;;;;;;1044175;28;3507;-51
2022/05/18 03:25:37;;;;;;;;;;;;;;;;;;1045344;28;4067;-52
2022/05/18 03:26:09;;;;;;;;;;;;;;;;;;1045387;28;3939;-55
2022/05/18 03:26:39;;;;;;;;;;;;;;;;;;1045408;28;4098;-50
2022/05/18 03:27:10;;;;;;;;;;;;;;;;;;1045307;28;2681;-51
2022/05/18 03:27:41;;;;;;;;;;;;;;;;;;1043302;28;4097;-50
2022/05/18 03:28:12;;;;;;;;;;;;;;;;;;1045371;28;2993;-50
2022/05/18 03:28:43;;;;;;;;;;;;;;;;;;1041571;28;3981;-56
2022/05/18 03:29:13;;;;;;;;;;;;;;;;;;1037886;28;4018;-51
2022/05/18 03:29:43;;;;;;;;;;;;;;;;;;1038552;28;4303;-52
2022/05/18 03:30:14;;;;;;;;;;;;;;;;;;1037147;28;4075;-51
2022/05/18 03:30:44;;;;;;;;;;;;;;;;;;1043311;28;4069;-51
2022/05/18 03:31:21;;;;;;;;;;;;;;;;;;1043120;28;3966;-50
2022/05/18 03:31:51;;;;;;;;;;;;;;;;;;1042665;28;4081;-53
2022/05/18 03:32:22;;;;;;;;;;;;;;;;;;1043737;28;3931;-54
2022/05/18 03:32:52;;;;;;;;;;;;;;;;;;1038830;28;3933;-47
2022/05/18 03:33:23;;;;;;;;;;;;;;;;;;1038907;28;3594;-49
2022/05/18 03:33:58;;;;;;;;;;;;;;;;;;1031055;28;4130;-51
2022/05/18 03:34:28;;;;;;;;;;;;;;;;;;1033708;28;3423;-55
2022/05/18 03:34:58;;;;;;;;;;;;;;;;;;1039513;28;3987;-52
2022/05/18 03:35:28;;;;;;;;;;;;;;;;;;1037906;28;4575;-55
2022/05/18 03:35:59;;;;;;;;;;;;;;;;;;1043752;28;3921;-52
2022/05/18 03:36:29;;;;;;;;;;;;;;;;;;1043999;28;3296;-53
2022/05/18 03:37:00;;;;;;;;;;;;;;;;;;1043759;28;4640;-54
2022/05/18 03:37:31;;;;;;;;;;;;;;;;;;1043668;28;3787;-50
2022/05/18 03:38:05;;;;;;;;;;;;;;;;;;1045276;28;4111;-52
2022/05/18 03:38:35;;;;;;;;;;;;;;;;;;1044006;28;3912;-54
2022/05/18 03:39:06;;;;;;;;;;;;;;;;;;1044182;28;3299;-54
2022/05/18 03:39:36;;;;;;;;;;;;;;;;;;1042864;28;4041;-51
2022/05/18 03:40:07;;;;;;;;;;;;;;;;;;1044808;28;3261;-50
2022/05/18 03:40:38;;;;;;;;;;;;;;;;;;1043247;28;4017;-55
2022/05/18 03:41:09;;;;;;;;;;;;;;;;;;1044539;28;3633;-51
2022/05/18 03:41:40;;;;;;;;;;;;;;;;;;1043710;28;3993;-53
2022/05/18 03:42:10;;;;;;;;;;;;;;;;;;1040187;28;3319;-49
2022/05/18 03:42:40;;;;;;;;;;;;;;;;;;1040784;28;3963;-52
2022/05/18 03:43:10;;;;;;;;;;;;;;;;;;1039061;28;3432;-48
2022/05/18 03:43:41;;;;;;;;;;;;;;;;;;1038955;28;4180;-52
2022/05/18 03:44:11;;;;;;;;;;;;;;;;;;1044707;28;2688;-53
2022/05/18 03:44:41;;;;;;;;;;;;;;;;;;1042813;28;3995;-55
2022/05/18 03:45:11;;;;;;;;;;;;;;;;;;1044406;28;4034;-52
2022/05/18 03:45:41;;;;;;;;;;;;;;;;;;1043148;28;3911;-49